createdAt,value
2018-03-04T00:00:24.453Z,988.07
2018-03-04T00:01:04.996Z,988.1
2018-03-04T00:01:45.488Z,988.07
2018-03-04T00:02:25.991Z,988.1
2018-03-04T00:03:06.488Z,988.06
2018-03-04T00:03:46.941Z,988.07
2018-03-04T00:04:27.431Z,988.02
2018-03-04T00:05:07.908Z,988.06
2018-03-04T00:05:48.396Z,988.04
2018-03-04T00:06:28.871Z,988.08
2018-03-04T00:07:09.353Z,988.09
2018-03-04T00:07:49.837Z,988.04
2018-03-04T00:08:30.321Z,988.06
2018-03-04T00:09:10.799Z,988.07
2018-03-04T00:09:51.312Z,988.03
2018-03-04T00:10:31.803Z,988.01
2018-03-04T00:11:12.324Z,988
2018-03-04T00:11:52.806Z,987.97
2018-03-04T00:12:33.248Z,987.96
2018-03-04T00:13:13.734Z,987.94
2018-03-04T00:13:54.244Z,987.91
2018-03-04T00:14:34.748Z,987.9
2018-03-04T00:15:15.237Z,987.93
2018-03-04T00:15:55.740Z,987.91
2018-03-04T00:16:36.248Z,987.92
2018-03-04T00:17:16.769Z,987.9
2018-03-04T00:17:57.274Z,987.94
2018-03-04T00:18:37.745Z,987.89
2018-03-04T00:19:18.272Z,987.88
2018-03-04T00:19:58.823Z,987.86
2018-03-04T00:20:39.302Z,987.91
2018-03-04T00:21:19.782Z,987.93
2018-03-04T00:22:00.288Z,987.86
2018-03-04T00:22:40.801Z,987.89
2018-03-04T00:23:21.308Z,987.86
2018-03-04T00:24:01.830Z,987.89
2018-03-04T00:24:42.369Z,987.93
2018-03-04T00:25:22.883Z,987.93
2018-03-04T00:26:03.402Z,987.96
2018-03-04T00:26:43.912Z,987.97
2018-03-04T00:27:24.430Z,988.01
2018-03-04T00:28:04.954Z,987.98
2018-03-04T00:28:45.474Z,987.94
2018-03-04T00:29:25.982Z,988
2018-03-04T00:30:06.500Z,988.02
2018-03-04T00:30:47.029Z,988.01
2018-03-04T00:31:27.555Z,988.02
2018-03-04T00:32:08.085Z,988
2018-03-04T00:32:48.595Z,988.03
2018-03-04T00:33:29.106Z,988.02
2018-03-04T00:34:09.612Z,988.02
2018-03-04T00:34:50.138Z,987.96
2018-03-04T00:35:30.644Z,988.04
2018-03-04T00:36:11.167Z,988
2018-03-04T00:36:51.684Z,988.01
2018-03-04T00:37:32.217Z,988.01
2018-03-04T00:38:12.739Z,988.07
2018-03-04T00:38:53.261Z,988.05
2018-03-04T00:39:33.762Z,988.04
2018-03-04T00:40:14.272Z,988.07
2018-03-04T00:40:54.791Z,988.04
2018-03-04T00:41:35.311Z,987.99
2018-03-04T00:42:15.825Z,988.02
2018-03-04T00:42:56.366Z,988
2018-03-04T00:43:36.865Z,987.99
2018-03-04T00:44:17.384Z,987.98
2018-03-04T00:44:57.888Z,987.95
2018-03-04T00:45:38.406Z,987.96
2018-03-04T00:46:18.926Z,988
2018-03-04T00:46:59.459Z,987.91
2018-03-04T00:47:39.982Z,987.95
2018-03-04T00:48:20.506Z,987.92
2018-03-04T00:49:01.021Z,987.96
2018-03-04T00:49:41.535Z,987.92
2018-03-04T00:50:22.061Z,987.95
2018-03-04T00:51:02.578Z,987.9
2018-03-04T00:51:43.091Z,987.92
2018-03-04T00:52:23.599Z,987.95
2018-03-04T00:53:04.115Z,987.95
2018-03-04T00:53:44.634Z,987.97
2018-03-04T00:54:25.148Z,987.96
2018-03-04T00:55:05.672Z,987.96
2018-03-04T00:55:46.185Z,987.95
2018-03-04T00:56:26.697Z,987.95
2018-03-04T00:57:07.207Z,987.9
2018-03-04T00:57:47.742Z,987.86
2018-03-04T00:58:28.264Z,987.97
2018-03-04T00:59:08.787Z,987.93
2018-03-04T00:59:49.322Z,987.95
2018-03-04T01:00:29.834Z,987.96
2018-03-04T01:01:10.379Z,987.93
2018-03-04T01:01:50.887Z,987.9
2018-03-04T01:02:31.438Z,987.95
2018-03-04T01:03:11.947Z,987.9
2018-03-04T01:03:52.475Z,987.96
2018-03-04T01:04:32.985Z,987.97
2018-03-04T01:05:13.501Z,988
2018-03-04T01:05:54.023Z,988.02
2018-03-04T01:06:34.534Z,987.99
2018-03-04T01:07:15.056Z,988.01
2018-03-04T01:07:55.571Z,987.99
2018-03-04T01:08:36.094Z,987.98
2018-03-04T01:09:16.615Z,987.96
2018-03-04T01:09:57.124Z,987.93
2018-03-04T01:10:37.644Z,987.89
2018-03-04T01:11:18.153Z,987.81
2018-03-04T01:11:58.682Z,987.79
2018-03-04T01:12:39.203Z,987.77
2018-03-04T01:13:19.720Z,987.78
2018-03-04T01:14:00.254Z,987.8
2018-03-04T01:14:40.779Z,987.75
2018-03-04T01:15:21.301Z,987.81
2018-03-04T01:16:01.821Z,987.73
2018-03-04T01:16:42.334Z,987.78
2018-03-04T01:17:22.857Z,987.8
2018-03-04T01:18:03.361Z,987.78
2018-03-04T01:18:43.867Z,987.77
2018-03-04T01:19:24.385Z,987.81
2018-03-04T01:20:04.907Z,987.8
2018-03-04T01:20:45.419Z,987.74
2018-03-04T01:21:25.931Z,987.79
2018-03-04T01:22:06.447Z,987.76
2018-03-04T01:22:46.958Z,987.8
2018-03-04T01:23:27.469Z,987.8
2018-03-04T01:24:08.000Z,987.83
2018-03-04T01:24:48.506Z,987.79
2018-03-04T01:25:29.017Z,987.8
2018-03-04T01:26:09.533Z,987.81
2018-03-04T01:26:50.044Z,987.81
2018-03-04T01:27:30.547Z,987.76
2018-03-04T01:28:11.052Z,987.87
2018-03-04T01:28:51.577Z,987.95
2018-03-04T01:29:32.083Z,988
2018-03-04T01:30:12.597Z,988
2018-03-04T01:30:53.114Z,988.03
2018-03-04T01:31:33.627Z,987.98
2018-03-04T01:32:14.140Z,987.97
2018-03-04T01:32:54.661Z,987.93
2018-03-04T01:33:35.170Z,987.87
2018-03-04T01:34:15.688Z,987.86
2018-03-04T01:34:56.194Z,987.87
2018-03-04T01:35:36.729Z,987.86
2018-03-04T01:36:17.239Z,987.82
2018-03-04T01:36:57.748Z,987.86
2018-03-04T01:37:38.248Z,987.88
2018-03-04T01:38:18.763Z,987.93
2018-03-04T01:38:59.282Z,987.94
2018-03-04T01:39:39.794Z,987.97
2018-03-04T01:40:20.316Z,987.98
2018-03-04T01:41:00.833Z,987.97
2018-03-04T01:41:41.353Z,987.97
2018-03-04T01:42:21.881Z,987.99
2018-03-04T01:43:02.375Z,988
2018-03-04T01:43:42.904Z,987.99
2018-03-04T01:44:23.426Z,988
2018-03-04T01:45:03.936Z,988.01
2018-03-04T01:45:44.470Z,988
2018-03-04T01:46:25.008Z,988.05
2018-03-04T01:47:05.507Z,988.06
2018-03-04T01:47:46.024Z,988.03
2018-03-04T01:48:26.539Z,988.08
2018-03-04T01:49:07.064Z,988.08
2018-03-04T01:49:47.567Z,988.13
2018-03-04T01:50:28.086Z,988.11
2018-03-04T01:51:08.591Z,988.07
2018-03-04T01:51:49.111Z,988.11
2018-03-04T01:52:29.629Z,988.09
2018-03-04T01:53:10.130Z,988.1
2018-03-04T01:53:50.658Z,988.09
2018-03-04T01:54:31.171Z,988.1
2018-03-04T01:55:11.696Z,988.08
2018-03-04T01:55:52.214Z,988.11
2018-03-04T01:56:32.737Z,988.17
2018-03-04T01:57:13.254Z,988.17
2018-03-04T01:57:53.766Z,988.18
2018-03-04T01:58:34.274Z,988.23
2018-03-04T01:59:14.806Z,988.17
2018-03-04T01:59:55.307Z,988.19
2018-03-04T02:00:35.824Z,988.18
2018-03-04T02:01:16.348Z,988.17
2018-03-04T02:01:56.869Z,988.18
2018-03-04T02:02:37.381Z,988.19
2018-03-04T02:03:18.599Z,988.15
2018-03-04T02:03:59.123Z,988.15
2018-03-04T02:04:39.643Z,988.25
2018-03-04T02:05:20.149Z,988.24
2018-03-04T02:06:00.675Z,988.33
2018-03-04T02:06:41.202Z,988.36
2018-03-04T02:07:21.718Z,988.33
2018-03-04T02:08:02.222Z,988.35
2018-03-04T02:08:42.756Z,988.38
2018-03-04T02:09:23.263Z,988.38
2018-03-04T02:10:03.771Z,988.31
2018-03-04T02:10:44.283Z,988.3
2018-03-04T02:11:24.803Z,988.3
2018-03-04T02:12:05.312Z,988.28
2018-03-04T02:12:45.823Z,988.25
2018-03-04T02:13:26.355Z,988.2
2018-03-04T02:14:06.883Z,988.15
2018-03-04T02:14:47.392Z,988.13
2018-03-04T02:15:27.903Z,988.14
2018-03-04T02:16:08.413Z,988.12
2018-03-04T02:16:48.939Z,988.15
2018-03-04T02:17:29.452Z,988.18
2018-03-04T02:18:09.980Z,988.24
2018-03-04T02:18:50.501Z,988.26
2018-03-04T02:19:31.040Z,988.25
2018-03-04T02:20:11.564Z,988.25
2018-03-04T02:20:52.088Z,988.29
2018-03-04T02:21:32.610Z,988.22
2018-03-04T02:22:13.129Z,988.16
2018-03-04T02:22:53.627Z,988.12
2018-03-04T02:23:34.157Z,988.15
2018-03-04T02:24:14.672Z,988.16
2018-03-04T02:24:55.183Z,988.13
2018-03-04T02:25:35.688Z,988.12
2018-03-04T02:26:16.208Z,988.06
2018-03-04T02:26:56.725Z,988.05
2018-03-04T02:27:37.252Z,988.04
2018-03-04T02:28:17.767Z,988.02
2018-03-04T02:28:58.290Z,988.01
2018-03-04T02:29:38.810Z,987.96
2018-03-04T02:30:19.323Z,987.91
2018-03-04T02:30:59.835Z,987.88
2018-03-04T02:31:40.348Z,987.88
2018-03-04T02:32:20.865Z,987.86
2018-03-04T02:33:01.395Z,987.85
2018-03-04T02:33:41.910Z,987.89
2018-03-04T02:34:22.427Z,987.84
2018-03-04T02:35:02.945Z,987.89
2018-03-04T02:35:43.455Z,987.83
2018-03-04T02:36:23.982Z,987.93
2018-03-04T02:37:04.494Z,987.93
2018-03-04T02:37:45.000Z,987.97
2018-03-04T02:38:25.517Z,987.94
2018-03-04T02:39:06.033Z,988
2018-03-04T02:39:46.548Z,987.99
2018-03-04T02:40:27.051Z,988.03
2018-03-04T02:41:07.560Z,987.98
2018-03-04T02:41:48.077Z,987.94
2018-03-04T02:42:28.583Z,987.93
2018-03-04T02:43:09.112Z,987.96
2018-03-04T02:43:49.629Z,987.87
2018-03-04T02:44:30.143Z,987.82
2018-03-04T02:45:10.659Z,987.83
2018-03-04T02:45:51.187Z,987.81
2018-03-04T02:46:31.716Z,987.78
2018-03-04T02:47:12.231Z,987.84
2018-03-04T02:47:52.738Z,987.91
2018-03-04T02:48:33.248Z,987.89
2018-03-04T02:49:13.772Z,987.78
2018-03-04T02:49:54.278Z,987.78
2018-03-04T02:50:34.785Z,987.71
2018-03-04T02:51:15.298Z,987.68
2018-03-04T02:51:55.813Z,987.64
2018-03-04T02:52:36.344Z,987.62
2018-03-04T02:53:16.852Z,987.57
2018-03-04T02:53:57.392Z,987.61
2018-03-04T02:54:37.891Z,987.64
2018-03-04T02:55:18.401Z,987.63
2018-03-04T02:55:58.927Z,987.64
2018-03-04T02:56:39.439Z,987.6
2018-03-04T02:57:19.951Z,987.67
2018-03-04T02:58:00.458Z,987.63
2018-03-04T02:58:40.974Z,987.65
2018-03-04T02:59:21.480Z,987.64
2018-03-04T03:00:01.995Z,987.58
2018-03-04T03:00:42.526Z,987.55
2018-03-04T03:01:23.031Z,987.57
2018-03-04T03:02:03.548Z,987.52
2018-03-04T03:02:44.047Z,987.42
2018-03-04T03:03:24.565Z,987.46
2018-03-04T03:04:05.083Z,987.43
2018-03-04T03:04:45.607Z,987.44
2018-03-04T03:05:26.120Z,987.47
2018-03-04T03:06:06.655Z,987.4
2018-03-04T03:06:47.165Z,987.47
2018-03-04T03:07:27.687Z,987.49
2018-03-04T03:08:08.176Z,987.47
2018-03-04T03:08:48.689Z,987.51
2018-03-04T03:09:29.203Z,987.47
2018-03-04T03:10:09.740Z,987.51
2018-03-04T03:10:50.262Z,987.51
2018-03-04T03:11:30.772Z,987.47
2018-03-04T03:12:11.284Z,987.54
2018-03-04T03:12:51.796Z,987.53
2018-03-04T03:13:32.321Z,987.54
2018-03-04T03:14:12.842Z,987.6
2018-03-04T03:14:53.353Z,987.59
2018-03-04T03:15:33.868Z,987.62
2018-03-04T03:16:14.379Z,987.61
2018-03-04T03:16:54.881Z,987.63
2018-03-04T03:17:35.393Z,987.57
2018-03-04T03:18:15.906Z,987.59
2018-03-04T03:18:56.417Z,987.59
2018-03-04T03:19:36.933Z,987.63
2018-03-04T03:20:17.443Z,987.59
2018-03-04T03:20:57.956Z,987.52
2018-03-04T03:21:38.488Z,987.58
2018-03-04T03:22:19.003Z,987.49
2018-03-04T03:22:59.522Z,987.53
2018-03-04T03:23:40.051Z,987.56
2018-03-04T03:24:20.579Z,987.53
2018-03-04T03:25:01.095Z,987.6
2018-03-04T03:25:41.617Z,987.55
2018-03-04T03:26:22.136Z,987.58
2018-03-04T03:27:02.642Z,987.53
2018-03-04T03:27:43.161Z,987.54
2018-03-04T03:28:23.689Z,987.54
2018-03-04T03:29:04.217Z,987.55
2018-03-04T03:29:44.730Z,987.49
2018-03-04T03:30:25.250Z,987.47
2018-03-04T03:31:05.767Z,987.54
2018-03-04T03:31:46.283Z,987.5
2018-03-04T03:32:26.812Z,987.49
2018-03-04T03:33:07.341Z,987.45
2018-03-04T03:33:47.859Z,987.48
2018-03-04T03:34:28.370Z,987.44
2018-03-04T03:35:08.891Z,987.5
2018-03-04T03:35:49.411Z,987.51
2018-03-04T03:36:29.913Z,987.5
2018-03-04T03:37:10.422Z,987.47
2018-03-04T03:37:50.920Z,987.46
2018-03-04T03:38:31.443Z,987.45
2018-03-04T03:39:11.952Z,987.49
2018-03-04T03:39:52.477Z,987.41
2018-03-04T03:40:32.994Z,987.44
2018-03-04T03:41:13.514Z,987.42
2018-03-04T03:41:54.020Z,987.37
2018-03-04T03:42:34.551Z,987.37
2018-03-04T03:43:15.062Z,987.36
2018-03-04T03:43:55.582Z,987.35
2018-03-04T03:44:36.086Z,987.35
2018-03-04T03:45:16.592Z,987.34
2018-03-04T03:45:57.104Z,987.34
2018-03-04T03:46:37.645Z,987.32
2018-03-04T03:47:18.154Z,987.35
2018-03-04T03:47:58.700Z,987.31
2018-03-04T03:48:39.211Z,987.33
2018-03-04T03:49:19.723Z,987.31
2018-03-04T03:50:00.240Z,987.38
2018-03-04T03:50:40.757Z,987.36
2018-03-04T03:51:21.271Z,987.36
2018-03-04T03:52:01.780Z,987.39
2018-03-04T03:52:42.299Z,987.4
2018-03-04T03:53:22.812Z,987.4
2018-03-04T03:54:03.344Z,987.38
2018-03-04T03:54:43.872Z,987.38
2018-03-04T03:55:24.388Z,987.39
2018-03-04T03:56:04.904Z,987.41
2018-03-04T03:56:45.430Z,987.39
2018-03-04T03:57:25.956Z,987.42
2018-03-04T03:58:06.474Z,987.38
2018-03-04T03:58:46.990Z,987.38
2018-03-04T03:59:27.505Z,987.39
2018-03-04T04:00:08.012Z,987.36
2018-03-04T04:00:48.536Z,987.33
2018-03-04T04:01:29.058Z,987.39
2018-03-04T04:02:09.577Z,987.4
2018-03-04T04:02:50.080Z,987.34
2018-03-04T04:03:30.609Z,987.35
2018-03-04T04:04:11.107Z,987.41
2018-03-04T04:04:51.621Z,987.36
2018-03-04T04:05:32.152Z,987.35
2018-03-04T04:06:12.654Z,987.35
2018-03-04T04:06:53.162Z,987.4
2018-03-04T04:07:33.678Z,987.33
2018-03-04T04:08:14.178Z,987.36
2018-03-04T04:08:54.678Z,987.35
2018-03-04T04:09:35.194Z,987.41
2018-03-04T04:10:15.701Z,987.39
2018-03-04T04:10:56.223Z,987.35
2018-03-04T04:11:36.731Z,987.35
2018-03-04T04:12:17.246Z,987.31
2018-03-04T04:12:57.753Z,987.3
2018-03-04T04:13:38.265Z,987.35
2018-03-04T04:14:18.777Z,987.3
2018-03-04T04:14:59.300Z,987.34
2018-03-04T04:15:39.816Z,987.3
2018-03-04T04:16:20.324Z,987.32
2018-03-04T04:17:00.840Z,987.32
2018-03-04T04:17:41.358Z,987.32
2018-03-04T04:18:21.877Z,987.34
2018-03-04T04:19:02.391Z,987.34
2018-03-04T04:19:42.905Z,987.32
2018-03-04T04:20:23.426Z,987.37
2018-03-04T04:21:03.941Z,987.36
2018-03-04T04:21:44.451Z,987.39
2018-03-04T04:22:24.983Z,987.35
2018-03-04T04:23:05.498Z,987.38
2018-03-04T04:23:46.007Z,987.39
2018-03-04T04:24:26.525Z,987.48
2018-03-04T04:25:07.034Z,987.44
2018-03-04T04:25:47.554Z,987.44
2018-03-04T04:26:28.064Z,987.5
2018-03-04T04:27:08.573Z,987.45
2018-03-04T04:27:49.083Z,987.43
2018-03-04T04:28:29.592Z,987.46
2018-03-04T04:29:10.131Z,987.44
2018-03-04T04:29:50.636Z,987.4
2018-03-04T04:30:31.153Z,987.41
2018-03-04T04:31:11.682Z,987.37
2018-03-04T04:31:52.215Z,987.38
2018-03-04T04:32:32.727Z,987.37
2018-03-04T04:33:13.253Z,987.36
2018-03-04T04:33:53.783Z,987.33
2018-03-04T04:34:34.301Z,987.33
2018-03-04T04:35:14.816Z,987.32
2018-03-04T04:35:55.324Z,987.29
2018-03-04T04:36:35.843Z,987.37
2018-03-04T04:37:16.355Z,987.33
2018-03-04T04:37:56.865Z,987.28
2018-03-04T04:38:37.371Z,987.25
2018-03-04T04:39:17.889Z,987.28
2018-03-04T04:39:58.406Z,987.26
2018-03-04T04:40:38.921Z,987.26
2018-03-04T04:41:19.433Z,987.26
2018-03-04T04:41:59.945Z,987.27
2018-03-04T04:42:40.455Z,987.25
2018-03-04T04:43:20.965Z,987.3
2018-03-04T04:44:01.484Z,987.31
2018-03-04T04:44:42.006Z,987.29
2018-03-04T04:45:22.523Z,987.32
2018-03-04T04:46:03.035Z,987.27
2018-03-04T04:46:43.545Z,987.31
2018-03-04T04:47:24.058Z,987.29
2018-03-04T04:48:04.580Z,987.25
2018-03-04T04:48:45.097Z,987.2
2018-03-04T04:49:25.604Z,987.24
2018-03-04T04:50:06.146Z,987.2
2018-03-04T04:50:46.664Z,987.18
2018-03-04T04:51:27.172Z,987.21
2018-03-04T04:52:07.696Z,987.24
2018-03-04T04:52:48.229Z,987.22
2018-03-04T04:53:28.725Z,987.24
2018-03-04T04:54:09.249Z,987.2
2018-03-04T04:54:49.763Z,987.27
2018-03-04T04:55:30.274Z,987.22
2018-03-04T04:56:10.782Z,987.26
2018-03-04T04:56:51.311Z,987.27
2018-03-04T04:57:31.830Z,987.21
2018-03-04T04:58:12.351Z,987.16
2018-03-04T04:58:52.867Z,987.17
2018-03-04T04:59:33.383Z,987.15
2018-03-04T05:00:13.910Z,987.16
2018-03-04T05:00:54.430Z,987.16
2018-03-04T05:01:34.965Z,987.16
2018-03-04T05:02:15.472Z,987.19
2018-03-04T05:02:55.994Z,987.2
2018-03-04T05:03:36.509Z,987.21
2018-03-04T05:04:17.025Z,987.16
2018-03-04T05:04:57.538Z,987.25
2018-03-04T05:05:38.058Z,987.26
2018-03-04T05:06:18.571Z,987.22
2018-03-04T05:06:59.083Z,987.23
2018-03-04T05:07:39.598Z,987.28
2018-03-04T05:08:20.117Z,987.28
2018-03-04T05:09:00.618Z,987.23
2018-03-04T05:09:41.137Z,987.28
2018-03-04T05:10:21.646Z,987.3
2018-03-04T05:11:02.148Z,987.27
2018-03-04T05:11:42.652Z,987.28
2018-03-04T05:12:23.162Z,987.29
2018-03-04T05:13:03.672Z,987.29
2018-03-04T05:13:44.187Z,987.22
2018-03-04T05:14:24.692Z,987.24
2018-03-04T05:15:05.205Z,987.28
2018-03-04T05:15:45.722Z,987.33
2018-03-04T05:16:26.232Z,987.33
2018-03-04T05:17:06.738Z,987.3
2018-03-04T05:17:47.267Z,987.35
2018-03-04T05:18:27.792Z,987.35
2018-03-04T05:19:08.309Z,987.3
2018-03-04T05:19:48.825Z,987.31
2018-03-04T05:20:29.339Z,987.35
2018-03-04T05:21:09.850Z,987.31
2018-03-04T05:21:50.367Z,987.29
2018-03-04T05:22:30.887Z,987.31
2018-03-04T05:23:11.406Z,987.35
2018-03-04T05:23:51.924Z,987.36
2018-03-04T05:24:32.447Z,987.3
2018-03-04T05:25:12.955Z,987.33
2018-03-04T05:25:53.469Z,987.31
2018-03-04T05:26:33.975Z,987.33
2018-03-04T05:27:14.486Z,987.32
2018-03-04T05:27:55.001Z,987.35
2018-03-04T05:28:35.514Z,987.32
2018-03-04T05:29:16.034Z,987.34
2018-03-04T05:29:56.556Z,987.3
2018-03-04T05:30:37.077Z,987.29
2018-03-04T05:31:17.599Z,987.29
2018-03-04T05:31:58.120Z,987.28
2018-03-04T05:32:38.648Z,987.3
2018-03-04T05:33:19.169Z,987.27
2018-03-04T05:33:59.686Z,987.31
2018-03-04T05:34:40.214Z,987.25
2018-03-04T05:35:20.732Z,987.3
2018-03-04T05:36:01.236Z,987.26
2018-03-04T05:36:41.750Z,987.22
2018-03-04T05:37:22.268Z,987.22
2018-03-04T05:38:02.792Z,987.18
2018-03-04T05:38:43.326Z,987.16
2018-03-04T05:39:23.836Z,987.18
2018-03-04T05:40:04.351Z,987.13
2018-03-04T05:40:44.871Z,987.15
2018-03-04T05:41:25.382Z,987.14
2018-03-04T05:42:05.894Z,987.16
2018-03-04T05:42:46.421Z,987.11
2018-03-04T05:43:26.940Z,987.07
2018-03-04T05:44:07.455Z,987.1
2018-03-04T05:44:47.981Z,987.07
2018-03-04T05:45:28.492Z,987.08
2018-03-04T05:46:09.014Z,987.03
2018-03-04T05:46:49.516Z,987.03
2018-03-04T05:47:30.036Z,987.03
2018-03-04T05:48:10.553Z,987.04
2018-03-04T05:48:51.146Z,987.09
2018-03-04T05:49:31.662Z,987.14
2018-03-04T05:50:12.188Z,987.08
2018-03-04T05:50:52.695Z,987.06
2018-03-04T05:51:33.208Z,987.05
2018-03-04T05:52:13.745Z,987.09
2018-03-04T05:52:54.249Z,987.03
2018-03-04T05:53:34.776Z,987.01
2018-03-04T05:54:15.295Z,986.92
2018-03-04T05:54:55.809Z,986.91
2018-03-04T05:55:36.330Z,986.9
2018-03-04T05:56:16.846Z,986.9
2018-03-04T05:56:57.463Z,986.87
2018-03-04T05:57:37.983Z,986.9
2018-03-04T05:58:18.500Z,986.9
2018-03-04T05:58:58.995Z,986.89
2018-03-04T05:59:39.507Z,986.9
2018-03-04T06:00:20.018Z,986.79
2018-03-04T06:01:00.656Z,986.77
2018-03-04T06:01:41.050Z,986.74
2018-03-04T06:02:21.700Z,986.72
2018-03-04T06:03:02.225Z,986.77
2018-03-04T06:03:42.733Z,986.7
2018-03-04T06:04:23.253Z,986.73
2018-03-04T06:05:03.772Z,986.75
2018-03-04T06:05:44.292Z,986.75
2018-03-04T06:06:24.802Z,986.74
2018-03-04T06:07:05.325Z,986.73
2018-03-04T06:07:45.860Z,986.74
2018-03-04T06:08:26.376Z,986.62
2018-03-04T06:09:06.907Z,986.65
2018-03-04T06:09:47.424Z,986.62
2018-03-04T06:10:27.954Z,986.61
2018-03-04T06:11:08.450Z,986.58
2018-03-04T06:11:48.972Z,986.59
2018-03-04T06:12:29.489Z,986.59
2018-03-04T06:13:10.014Z,986.58
2018-03-04T06:13:50.524Z,986.63
2018-03-04T06:14:31.035Z,986.54
2018-03-04T06:15:11.553Z,986.57
2018-03-04T06:15:52.078Z,986.58
2018-03-04T06:16:32.566Z,986.55
2018-03-04T06:17:13.089Z,986.61
2018-03-04T06:17:53.605Z,986.62
2018-03-04T06:18:34.122Z,986.67
2018-03-04T06:19:14.636Z,986.69
2018-03-04T06:19:55.139Z,986.67
2018-03-04T06:20:35.652Z,986.65
2018-03-04T06:21:16.160Z,986.64
2018-03-04T06:21:56.684Z,986.67
2018-03-04T06:22:37.189Z,986.7
2018-03-04T06:23:17.708Z,986.74
2018-03-04T06:23:58.225Z,986.72
2018-03-04T06:24:38.740Z,986.86
2018-03-04T06:25:19.256Z,986.92
2018-03-04T06:25:59.778Z,986.95
2018-03-04T06:26:40.289Z,987.06
2018-03-04T06:27:20.801Z,987.09
2018-03-04T06:28:01.325Z,987.11
2018-03-04T06:28:41.852Z,987.06
2018-03-04T06:29:22.380Z,987.1
2018-03-04T06:30:02.888Z,987.07
2018-03-04T06:30:43.405Z,987.04
2018-03-04T06:31:23.930Z,987.04
2018-03-04T06:32:04.448Z,987.09
2018-03-04T06:32:44.969Z,987.04
2018-03-04T06:33:25.487Z,987.03
2018-03-04T06:34:06.007Z,987.05
2018-03-04T06:34:46.525Z,987.07
2018-03-04T06:35:27.044Z,987.11
2018-03-04T06:36:07.554Z,987.1
2018-03-04T06:36:48.064Z,987.1
2018-03-04T06:37:28.580Z,987.14
2018-03-04T06:38:09.096Z,987.21
2018-03-04T06:38:49.617Z,987.25
2018-03-04T06:39:30.136Z,987.27
2018-03-04T06:40:10.650Z,987.27
2018-03-04T06:40:51.166Z,987.25
2018-03-04T06:41:31.691Z,987.25
2018-03-04T06:42:12.216Z,987.29
2018-03-04T06:42:52.720Z,987.33
2018-03-04T06:43:33.240Z,987.31
2018-03-04T06:44:13.788Z,987.26
2018-03-04T06:44:54.299Z,987.26
2018-03-04T06:45:34.823Z,987.29
2018-03-04T06:46:15.328Z,987.23
2018-03-04T06:46:55.849Z,987.24
2018-03-04T06:47:36.378Z,987.21
2018-03-04T06:48:16.906Z,987.19
2018-03-04T06:48:57.440Z,987.13
2018-03-04T06:49:37.950Z,987.23
2018-03-04T06:50:18.452Z,987.18
2018-03-04T06:50:58.959Z,987.21
2018-03-04T06:51:39.607Z,987.17
2018-03-04T06:52:20.127Z,987.06
2018-03-04T06:53:00.644Z,987.07
2018-03-04T06:53:41.152Z,987.08
2018-03-04T06:54:21.670Z,987.07
2018-03-04T06:55:02.200Z,987.05
2018-03-04T06:55:42.709Z,987.11
2018-03-04T06:56:23.224Z,987.08
2018-03-04T06:57:03.756Z,987.12
2018-03-04T06:57:44.302Z,987.11
2018-03-04T06:58:24.806Z,987.05
2018-03-04T06:59:05.318Z,987.09
2018-03-04T06:59:45.836Z,987.04
2018-03-04T07:00:26.362Z,987.03
2018-03-04T07:01:06.874Z,987
2018-03-04T07:01:47.388Z,987.01
2018-03-04T07:02:27.933Z,987.03
2018-03-04T07:03:08.456Z,987.02
2018-03-04T07:03:48.990Z,986.97
2018-03-04T07:04:29.507Z,986.95
2018-03-04T07:05:10.035Z,986.96
2018-03-04T07:05:50.569Z,986.98
2018-03-04T07:06:31.084Z,986.9
2018-03-04T07:07:11.600Z,986.98
2018-03-04T07:07:52.119Z,986.98
2018-03-04T07:08:32.641Z,987.05
2018-03-04T07:09:13.149Z,987.03
2018-03-04T07:09:53.681Z,987.06
2018-03-04T07:10:34.194Z,987.06
2018-03-04T07:11:14.710Z,987.01
2018-03-04T07:11:55.230Z,986.98
2018-03-04T07:12:35.749Z,987
2018-03-04T07:13:16.336Z,986.93
2018-03-04T07:13:56.885Z,986.87
2018-03-04T07:14:37.490Z,986.86
2018-03-04T07:15:18.003Z,986.89
2018-03-04T07:15:58.541Z,986.86
2018-03-04T07:16:39.062Z,986.87
2018-03-04T07:17:19.565Z,986.9
2018-03-04T07:18:00.086Z,986.92
2018-03-04T07:18:40.601Z,986.9
2018-03-04T07:19:21.113Z,986.89
2018-03-04T07:20:01.685Z,986.91
2018-03-04T07:20:42.211Z,986.9
2018-03-04T07:21:22.726Z,986.91
2018-03-04T07:22:03.233Z,986.97
2018-03-04T07:22:43.748Z,986.98
2018-03-04T07:23:24.265Z,987
2018-03-04T07:24:04.784Z,987.06
2018-03-04T07:24:45.303Z,987.09
2018-03-04T07:25:25.822Z,987.05
2018-03-04T07:26:06.334Z,986.99
2018-03-04T07:26:46.860Z,986.97
2018-03-04T07:27:27.385Z,986.95
2018-03-04T07:28:07.899Z,986.87
2018-03-04T07:28:48.410Z,986.84
2018-03-04T07:29:28.924Z,986.82
2018-03-04T07:30:09.439Z,986.81
2018-03-04T07:30:49.942Z,986.75
2018-03-04T07:31:30.463Z,986.77
2018-03-04T07:32:10.964Z,986.73
2018-03-04T07:32:51.482Z,986.71
2018-03-04T07:33:31.987Z,986.7
2018-03-04T07:34:12.522Z,986.72
2018-03-04T07:34:53.034Z,986.66
2018-03-04T07:35:33.548Z,986.69
2018-03-04T07:36:14.071Z,986.68
2018-03-04T07:36:54.588Z,986.71
2018-03-04T07:37:35.114Z,986.72
2018-03-04T07:38:15.636Z,986.71
2018-03-04T07:38:56.167Z,986.72
2018-03-04T07:39:36.684Z,986.74
2018-03-04T07:40:17.199Z,986.77
2018-03-04T07:40:57.707Z,986.71
2018-03-04T07:41:38.219Z,986.7
2018-03-04T07:42:18.726Z,986.65
2018-03-04T07:42:59.237Z,986.68
2018-03-04T07:43:39.806Z,986.66
2018-03-04T07:44:20.351Z,986.69
2018-03-04T07:45:01.001Z,986.66
2018-03-04T07:45:41.550Z,986.65
2018-03-04T07:46:22.071Z,986.6
2018-03-04T07:47:02.571Z,986.62
2018-03-04T07:47:43.078Z,986.59
2018-03-04T07:48:23.592Z,986.61
2018-03-04T07:49:04.098Z,986.59
2018-03-04T07:49:44.622Z,986.55
2018-03-04T07:50:25.148Z,986.49
2018-03-04T07:51:05.663Z,986.58
2018-03-04T07:51:46.188Z,986.59
2018-03-04T07:52:26.759Z,986.61
2018-03-04T07:53:07.243Z,986.6
2018-03-04T07:53:47.746Z,986.6
2018-03-04T07:54:28.234Z,986.61
2018-03-04T07:55:08.757Z,986.67
2018-03-04T07:55:49.273Z,986.66
2018-03-04T07:56:29.790Z,986.7
2018-03-04T07:57:10.301Z,986.64
2018-03-04T07:57:50.814Z,986.66
2018-03-04T07:58:31.381Z,986.69
2018-03-04T07:59:12.595Z,986.64
2018-03-04T07:59:52.524Z,986.68
2018-03-04T08:00:33.061Z,986.67
2018-03-04T08:01:13.599Z,986.7
2018-03-04T08:01:54.119Z,986.69
2018-03-04T08:02:34.647Z,986.69
2018-03-04T08:03:15.189Z,986.71
2018-03-04T08:03:55.697Z,986.7
2018-03-04T08:04:36.212Z,986.72
2018-03-04T08:05:16.730Z,986.73
2018-03-04T08:05:57.247Z,986.75
2018-03-04T08:06:37.769Z,986.76
2018-03-04T08:07:18.278Z,986.73
2018-03-04T08:07:58.801Z,986.75
2018-03-04T08:08:39.351Z,986.76
2018-03-04T08:09:19.870Z,986.76
2018-03-04T08:10:00.393Z,986.72
2018-03-04T08:10:40.916Z,986.79
2018-03-04T08:11:21.472Z,986.8
2018-03-04T08:12:01.968Z,986.79
2018-03-04T08:12:42.484Z,986.81
2018-03-04T08:13:23.085Z,986.79
2018-03-04T08:14:03.511Z,986.79
2018-03-04T08:14:44.066Z,986.8
2018-03-04T08:15:24.558Z,986.75
2018-03-04T08:16:05.068Z,986.75
2018-03-04T08:16:45.591Z,986.74
2018-03-04T08:17:26.118Z,986.73
2018-03-04T08:18:06.630Z,986.69
2018-03-04T08:18:47.153Z,986.74
2018-03-04T08:19:27.695Z,986.72
2018-03-04T08:20:08.228Z,986.72
2018-03-04T08:20:48.749Z,986.72
2018-03-04T08:21:29.275Z,986.7
2018-03-04T08:22:09.833Z,986.68
2018-03-04T08:22:50.374Z,986.65
2018-03-04T08:23:30.938Z,986.64
2018-03-04T08:24:11.447Z,986.68
2018-03-04T08:24:51.955Z,986.66
2018-03-04T08:25:32.468Z,986.67
2018-03-04T08:26:12.991Z,986.66
2018-03-04T08:26:53.511Z,986.69
2018-03-04T08:27:34.024Z,986.68
2018-03-04T08:28:14.538Z,986.67